createdAt,value
2022-11-14T00:00:51.711Z,7.28
2022-11-14T00:02:03.207Z,6.60
2022-11-14T00:03:14.745Z,6.55
2022-11-14T00:04:29.506Z,6.80
2022-11-14T00:05:42.494Z,7.05
2022-11-14T00:06:54.023Z,6.75
2022-11-14T00:08:05.697Z,7.45
2022-11-14T00:09:18.212Z,7.15
2022-11-14T00:10:29.832Z,6.28
2022-11-14T00:11:41.307Z,6.75
2022-11-14T00:12:52.976Z,5.95
2022-11-14T00:14:04.569Z,6.55
2022-11-14T00:15:16.073Z,7.38
2022-11-14T00:16:27.898Z,7.30
2022-11-14T00:17:39.333Z,6.93
2022-11-14T00:18:51.345Z,7.82
2022-11-14T00:20:03.277Z,7.35
2022-11-14T00:21:14.702Z,7.45
2022-11-14T00:22:26.133Z,8.27
2022-11-14T00:23:37.596Z,6.30
2022-11-14T00:24:49.023Z,7.68
2022-11-14T00:26:00.430Z,7.65
2022-11-14T00:27:12.619Z,7.93
2022-11-14T00:28:24.045Z,8.68
2022-11-14T00:29:35.464Z,8.00
2022-11-14T00:30:48.270Z,7.22
2022-11-14T00:31:59.721Z,6.70
2022-11-14T00:33:14.704Z,8.20
2022-11-14T00:34:28.723Z,7.47
2022-11-14T00:35:40.156Z,8.57
2022-11-14T00:36:51.702Z,7.38
2022-11-14T00:38:03.142Z,6.50
2022-11-14T00:39:14.798Z,7.28
2022-11-14T00:40:26.282Z,7.53
2022-11-14T00:41:37.707Z,6.53
2022-11-14T00:42:49.139Z,5.50
2022-11-14T00:44:00.553Z,6.55
2022-11-14T00:45:12.175Z,6.88
2022-11-14T00:46:23.673Z,7.32
2022-11-14T00:47:35.233Z,8.07
2022-11-14T00:48:46.769Z,6.63
2022-11-14T00:49:58.197Z,7.78
2022-11-14T00:51:09.683Z,9.60
2022-11-14T00:52:21.081Z,15.10
2022-11-14T00:53:32.585Z,10.52
2022-11-14T00:54:44.112Z,8.30
2022-11-14T00:55:55.626Z,7.72
2022-11-14T00:57:07.130Z,7.85
2022-11-14T00:58:19.376Z,8.05
2022-11-14T00:59:30.810Z,8.23
2022-11-14T01:00:42.390Z,7.88
2022-11-14T01:01:57.655Z,8.43
2022-11-14T01:03:09.500Z,6.90
2022-11-14T01:04:20.946Z,6.68
2022-11-14T01:05:32.378Z,6.32
2022-11-14T01:06:43.821Z,6.15
2022-11-14T01:07:55.387Z,5.45
2022-11-14T01:09:06.899Z,6.10
2022-11-14T01:10:18.588Z,5.30
2022-11-14T01:11:30.061Z,6.18
2022-11-14T01:12:41.513Z,6.35
2022-11-14T01:13:52.937Z,6.13
2022-11-14T01:15:04.609Z,5.55
2022-11-14T01:16:16.696Z,6.18
2022-11-14T01:17:28.729Z,5.45
2022-11-14T01:18:40.493Z,5.65
2022-11-14T01:19:51.929Z,7.05
2022-11-14T01:21:07.038Z,6.03
2022-11-14T01:22:18.453Z,6.43
2022-11-14T01:23:29.882Z,5.32
2022-11-14T01:24:41.301Z,5.38
2022-11-14T01:25:52.729Z,6.53
2022-11-14T01:27:04.245Z,6.47
2022-11-14T01:28:16.685Z,5.82
2022-11-14T01:29:28.217Z,4.97
2022-11-14T01:30:40.138Z,6.20
2022-11-14T01:31:51.553Z,7.00
2022-11-14T01:33:03.158Z,6.30
2022-11-14T01:34:14.747Z,5.70
2022-11-14T01:35:26.173Z,6.35
2022-11-14T01:36:37.669Z,7.43
2022-11-14T01:37:49.285Z,7.63
2022-11-14T01:39:00.772Z,7.07
2022-11-14T01:40:12.373Z,6.50
2022-11-14T01:41:23.818Z,6.47
2022-11-14T01:42:35.329Z,6.13
2022-11-14T01:43:46.877Z,6.35
2022-11-14T01:44:58.310Z,7.18
2022-11-14T01:46:15.309Z,7.32
2022-11-14T01:47:28.985Z,6.80
2022-11-14T01:48:40.368Z,7.13
2022-11-14T01:49:54.431Z,6.75
2022-11-14T01:51:24.591Z,8.55
2022-11-14T01:52:37.785Z,6.38
2022-11-14T01:53:51.522Z,6.28
2022-11-14T01:55:04.867Z,6.25
2022-11-14T01:56:19.394Z,7.28
2022-11-14T01:57:35.305Z,6.25
2022-11-14T01:58:49.207Z,7.28
2022-11-14T02:00:02.593Z,7.57
2022-11-14T02:01:14.068Z,6.57
2022-11-14T02:02:25.939Z,7.22
2022-11-14T02:03:39.108Z,6.70
2022-11-14T02:05:04.274Z,6.47
2022-11-14T02:06:18.492Z,6.07
2022-11-14T02:07:32.374Z,6.60
2022-11-14T02:08:44.375Z,6.63
2022-11-14T02:09:56.069Z,8.00
2022-11-14T02:11:10.179Z,6.15
2022-11-14T02:12:22.170Z,6.28
2022-11-14T02:13:33.604Z,7.13
2022-11-14T02:14:46.405Z,7.22
2022-11-14T02:15:57.908Z,7.28
2022-11-14T02:18:40.802Z,7.20
2022-11-14T02:19:52.198Z,7.20
2022-11-14T02:21:03.719Z,5.85
2022-11-14T02:22:15.370Z,6.90
2022-11-14T02:23:27.901Z,7.35
2022-11-14T02:24:39.333Z,7.35
2022-11-14T02:25:50.844Z,7.82
2022-11-14T02:27:02.693Z,5.82
2022-11-14T02:28:14.110Z,7.45
2022-11-14T02:29:25.542Z,6.88
2022-11-14T02:30:36.975Z,8.13
2022-11-14T02:31:48.407Z,7.05
2022-11-14T02:33:15.260Z,7.32
2022-11-14T02:34:26.689Z,6.15
2022-11-14T02:35:38.130Z,6.00
2022-11-14T02:36:49.570Z,6.65
2022-11-14T02:38:01.047Z,6.55
2022-11-14T02:39:12.456Z,5.90
2022-11-14T02:40:23.898Z,6.18
2022-11-14T02:41:35.331Z,5.68
2022-11-14T02:42:46.781Z,4.75
2022-11-14T02:43:58.199Z,5.95
2022-11-14T02:45:10.709Z,5.28
2022-11-14T02:46:22.174Z,5.88
2022-11-14T02:47:33.597Z,5.43
2022-11-14T02:48:45.127Z,5.45
2022-11-14T02:49:56.561Z,6.00
2022-11-14T02:51:07.966Z,6.28
2022-11-14T02:52:19.403Z,5.10
2022-11-14T02:53:30.860Z,5.95
2022-11-14T02:54:42.274Z,5.68
2022-11-14T02:55:54.391Z,7.68
2022-11-14T02:57:05.818Z,5.88
2022-11-14T02:58:17.280Z,8.02
2022-11-14T02:59:28.729Z,7.45
2022-11-14T03:00:59.294Z,7.65
2022-11-14T03:02:11.763Z,7.70
2022-11-14T03:03:23.262Z,8.25
2022-11-14T03:04:34.706Z,8.65
2022-11-14T03:05:46.100Z,9.68
2022-11-14T03:06:57.617Z,8.45
2022-11-14T03:08:09.088Z,7.30
2022-11-14T03:09:20.513Z,6.55
2022-11-14T03:10:32.008Z,6.63
2022-11-14T03:11:43.449Z,6.15
2022-11-14T03:12:55.461Z,7.55
2022-11-14T03:14:06.911Z,6.50
2022-11-14T03:15:18.379Z,7.45
2022-11-14T03:16:29.785Z,6.72
2022-11-14T03:17:41.232Z,6.38
2022-11-14T03:18:53.185Z,5.80
2022-11-14T03:20:05.438Z,6.53
2022-11-14T03:21:18.728Z,6.47
2022-11-14T03:22:30.282Z,6.00
2022-11-14T03:23:41.771Z,5.85
2022-11-14T03:24:53.361Z,6.07
2022-11-14T03:26:05.938Z,8.20
2022-11-14T03:27:17.340Z,7.20
2022-11-14T03:28:29.351Z,8.48
2022-11-14T03:29:41.013Z,9.15
2022-11-14T03:30:52.422Z,8.65
2022-11-14T03:32:03.955Z,7.43
2022-11-14T03:33:15.405Z,8.02
2022-11-14T03:34:27.062Z,6.63
2022-11-14T03:35:41.925Z,6.25
2022-11-14T03:36:53.343Z,6.20
2022-11-14T03:38:04.741Z,7.53
2022-11-14T03:39:16.388Z,7.65
2022-11-14T03:40:27.866Z,6.35
2022-11-14T03:41:39.269Z,7.00
2022-11-14T03:42:50.725Z,6.78
2022-11-14T03:44:02.171Z,5.85
2022-11-14T03:45:13.577Z,6.22
2022-11-14T03:46:25.040Z,7.07
2022-11-14T03:47:36.469Z,7.97
2022-11-14T03:48:47.892Z,6.78
2022-11-14T03:49:59.314Z,7.97
2022-11-14T03:51:10.805Z,9.13
2022-11-14T03:52:22.242Z,6.80
2022-11-14T03:53:33.694Z,7.35
2022-11-14T03:54:45.140Z,6.78
2022-11-14T03:55:56.612Z,6.85
2022-11-14T03:57:08.076Z,7.28
2022-11-14T03:58:19.651Z,5.72
2022-11-14T03:59:31.064Z,5.78
2022-11-14T04:00:42.658Z,6.65
2022-11-14T04:01:54.121Z,6.50
2022-11-14T04:03:05.533Z,6.40
2022-11-14T04:04:16.997Z,5.93
2022-11-14T04:05:28.476Z,6.30
2022-11-14T04:06:39.949Z,7.22
2022-11-14T04:07:51.441Z,6.45
2022-11-14T04:09:02.869Z,6.82
2022-11-14T04:10:14.351Z,7.28
2022-11-14T04:11:25.769Z,6.88
2022-11-14T04:12:37.192Z,8.40
2022-11-14T04:13:48.614Z,8.05
2022-11-14T04:15:00.038Z,7.00
2022-11-14T04:16:11.465Z,6.45
2022-11-14T04:17:22.885Z,6.80
2022-11-14T04:18:34.441Z,7.88
2022-11-14T04:19:45.846Z,7.80
2022-11-14T04:20:57.312Z,6.85
2022-11-14T04:22:08.944Z,7.32
2022-11-14T04:23:20.420Z,5.90
2022-11-14T04:24:31.904Z,9.85
2022-11-14T04:25:44.018Z,25.55
2022-11-14T04:26:55.449Z,17.85
2022-11-14T04:28:06.881Z,16.60
2022-11-14T04:29:18.299Z,20.70
2022-11-14T04:30:33.599Z,15.93
2022-11-14T04:31:46.235Z,19.17
2022-11-14T04:32:57.648Z,20.23
2022-11-14T04:34:09.049Z,15.35
2022-11-14T04:35:20.489Z,14.90
2022-11-14T04:36:31.995Z,12.88
2022-11-14T04:37:43.469Z,9.55
2022-11-14T04:38:54.891Z,9.55
2022-11-14T04:40:07.872Z,8.85
2022-11-14T04:41:19.286Z,7.63
2022-11-14T04:42:30.725Z,8.43
2022-11-14T04:43:45.592Z,7.65
2022-11-14T04:44:59.610Z,7.50
2022-11-14T04:46:11.060Z,7.55
2022-11-14T04:47:22.504Z,7.18
2022-11-14T04:48:33.964Z,6.43
2022-11-14T04:49:45.383Z,6.15
2022-11-14T04:50:56.814Z,6.38
2022-11-14T04:52:08.230Z,6.30
2022-11-14T04:53:19.665Z,6.03
2022-11-14T04:54:31.122Z,6.50
2022-11-14T04:55:43.809Z,6.82
2022-11-14T04:56:55.292Z,7.35
2022-11-14T04:58:06.702Z,5.53
2022-11-14T04:59:20.921Z,22.20
2022-11-14T05:00:32.852Z,26.63
2022-11-14T05:01:44.368Z,19.33
2022-11-14T05:02:58.332Z,25.60
2022-11-14T05:04:09.768Z,30.35
2022-11-14T05:05:21.214Z,22.90
2022-11-14T05:06:32.634Z,26.75
2022-11-14T05:07:44.069Z,19.98
2022-11-14T05:08:55.473Z,19.02
2022-11-14T05:10:07.285Z,14.60
2022-11-14T05:11:20.867Z,13.98
2022-11-14T05:12:33.878Z,12.25
2022-11-14T05:13:45.582Z,9.32
2022-11-14T05:14:57.056Z,9.93
2022-11-14T05:16:08.822Z,7.82
2022-11-14T05:17:20.278Z,9.02
2022-11-14T05:18:32.187Z,9.45
2022-11-14T05:19:44.040Z,10.38
2022-11-14T05:20:58.002Z,11.88
2022-11-14T05:22:09.428Z,11.32
2022-11-14T05:23:22.291Z,13.82
2022-11-14T05:24:33.750Z,13.13
2022-11-14T05:25:45.193Z,15.45
2022-11-14T05:26:56.626Z,19.85
2022-11-14T05:28:08.196Z,18.10
2022-11-14T05:29:19.895Z,14.70
2022-11-14T05:30:31.386Z,13.15
2022-11-14T05:31:42.871Z,11.38
2022-11-14T05:32:54.454Z,10.85
2022-11-14T05:34:05.991Z,11.25
2022-11-14T05:35:17.560Z,10.00
2022-11-14T05:36:29.038Z,9.32
2022-11-14T05:37:40.612Z,9.40
2022-11-14T05:38:52.191Z,10.52
2022-11-14T05:40:04.190Z,8.20
2022-11-14T05:41:17.086Z,10.27
2022-11-14T05:42:28.709Z,9.90
2022-11-14T05:43:40.351Z,8.75
2022-11-14T05:44:51.865Z,8.63
2022-11-14T05:46:04.942Z,9.13
2022-11-14T05:47:17.056Z,8.15
2022-11-14T05:48:29.637Z,8.43
2022-11-14T05:49:41.314Z,8.07
2022-11-14T05:50:59.898Z,7.95
2022-11-14T05:52:11.741Z,9.90
2022-11-14T05:53:23.323Z,9.80
2022-11-14T05:54:34.834Z,9.60
2022-11-14T05:55:46.272Z,10.80
2022-11-14T05:56:59.833Z,11.98
2022-11-14T05:58:11.296Z,13.45
2022-11-14T05:59:22.777Z,12.52
2022-11-14T06:00:39.646Z,11.20
2022-11-14T06:01:54.095Z,13.05
2022-11-14T06:03:05.818Z,9.48
2022-11-14T06:04:17.357Z,20.67
2022-11-14T06:05:28.832Z,18.45
2022-11-14T06:06:40.510Z,16.13
2022-11-14T06:07:56.332Z,13.95
2022-11-14T06:09:07.893Z,16.25
2022-11-14T06:10:19.447Z,15.88
2022-11-14T06:11:30.951Z,15.75
2022-11-14T06:12:42.419Z,14.82
2022-11-14T06:13:54.010Z,15.68
2022-11-14T06:15:05.756Z,16.15
2022-11-14T06:16:18.565Z,12.32
2022-11-14T06:17:30.047Z,14.30
2022-11-14T06:18:41.868Z,10.70
2022-11-14T06:19:53.406Z,12.77
2022-11-14T06:21:06.924Z,11.68
2022-11-14T06:22:18.404Z,10.52
2022-11-14T06:23:29.902Z,11.55
2022-11-14T06:24:41.461Z,11.05
2022-11-14T06:25:53.064Z,14.77
2022-11-14T06:27:04.616Z,15.60
2022-11-14T06:28:16.091Z,16.25
2022-11-14T06:29:32.654Z,15.93
2022-11-14T06:30:46.876Z,12.02
2022-11-14T06:32:00.487Z,11.05
2022-11-14T06:33:11.925Z,10.60
2022-11-14T06:34:23.508Z,9.27
2022-11-14T06:35:35.704Z,10.40
2022-11-14T06:36:47.202Z,9.80
2022-11-14T06:38:00.027Z,10.60
2022-11-14T06:39:11.590Z,9.02
2022-11-14T06:40:23.135Z,13.43
2022-11-14T06:41:34.611Z,11.73
2022-11-14T06:42:46.116Z,9.85
2022-11-14T06:44:00.129Z,9.18
2022-11-14T06:45:11.707Z,11.10
2022-11-14T06:46:23.587Z,10.27
2022-11-14T06:47:35.076Z,10.05
2022-11-14T06:48:47.050Z,9.93
2022-11-14T06:49:58.549Z,9.57
2022-11-14T06:51:11.059Z,7.60
2022-11-14T06:52:23.112Z,7.03
2022-11-14T06:53:35.309Z,7.47
2022-11-14T06:54:46.840Z,7.72
2022-11-14T06:56:06.038Z,8.23
2022-11-14T06:57:17.520Z,10.15
2022-11-14T06:58:30.140Z,11.15
2022-11-14T06:59:41.844Z,9.70
2022-11-14T07:00:53.409Z,13.85
2022-11-14T07:02:04.962Z,12.55
2022-11-14T07:03:16.597Z,16.73
2022-11-14T07:04:28.221Z,14.93
2022-11-14T07:05:39.686Z,19.42
2022-11-14T07:06:51.158Z,17.13
2022-11-14T07:08:03.860Z,17.90
2022-11-14T07:09:15.330Z,16.40
2022-11-14T07:10:26.758Z,15.48
2022-11-14T07:11:38.340Z,14.45
2022-11-14T07:12:49.784Z,12.20
2022-11-14T07:14:02.089Z,12.05
2022-11-14T07:15:13.596Z,13.48
2022-11-14T07:16:32.032Z,15.25
2022-11-14T07:17:43.570Z,22.88
2022-11-14T07:18:55.348Z,25.33
2022-11-14T07:20:07.233Z,20.00
2022-11-14T07:21:18.809Z,16.30
2022-11-14T07:22:30.313Z,13.40
2022-11-14T07:23:42.005Z,10.45
2022-11-14T07:24:53.598Z,12.80
2022-11-14T07:26:08.938Z,8.48
2022-11-14T07:27:20.499Z,9.00
2022-11-14T07:28:32.454Z,10.13
2022-11-14T07:29:44.089Z,8.73
2022-11-14T07:30:55.559Z,10.20
2022-11-14T07:32:07.108Z,9.20
2022-11-14T07:33:18.729Z,9.23
2022-11-14T07:34:30.164Z,9.02
2022-11-14T07:35:41.746Z,9.07
2022-11-14T07:36:55.107Z,10.80
2022-11-14T07:38:06.645Z,11.38
2022-11-14T07:39:18.122Z,13.35
2022-11-14T07:40:29.735Z,10.45
2022-11-14T07:41:41.323Z,10.85
2022-11-14T07:42:57.662Z,12.90
2022-11-14T07:44:09.192Z,12.38
2022-11-14T07:45:20.625Z,15.88
2022-11-14T07:46:32.096Z,14.13
2022-11-14T07:47:43.599Z,12.65
2022-11-14T07:48:57.402Z,13.90
2022-11-14T07:50:09.030Z,11.40
2022-11-14T07:51:20.556Z,13.00
2022-11-14T07:52:31.978Z,14.02
2022-11-14T07:53:43.720Z,13.55
2022-11-14T07:54:55.141Z,12.70
2022-11-14T07:56:09.751Z,10.68
2022-11-14T07:57:21.207Z,8.75
2022-11-14T07:58:34.875Z,10.82
2022-11-14T07:59:46.301Z,10.68
2022-11-14T08:01:01.328Z,10.98
2022-11-14T08:02:16.194Z,9.82
2022-11-14T08:03:27.860Z,9.48
2022-11-14T08:04:41.652Z,10.65
2022-11-14T08:05:59.674Z,10.55
2022-11-14T08:07:11.419Z,14.10
2022-11-14T08:08:22.859Z,11.68
2022-11-14T08:09:34.357Z,10.30
2022-11-14T08:10:45.774Z,8.77
2022-11-14T08:11:57.203Z,9.95
2022-11-14T08:13:31.012Z,7.35
2022-11-14T08:14:41.959Z,8.20
2022-11-14T08:15:53.442Z,10.55
2022-11-14T08:17:05.058Z,8.85
2022-11-14T08:18:17.921Z,9.25
2022-11-14T08:19:31.679Z,8.40
2022-11-14T08:20:44.077Z,9.00
2022-11-14T08:21:55.495Z,8.15
2022-11-14T08:23:07.266Z,9.45
2022-11-14T08:24:18.727Z,9.95
2022-11-14T08:25:30.190Z,8.90
2022-11-14T08:26:43.479Z,8.18
2022-11-14T08:27:54.925Z,9.75
2022-11-14T08:29:06.430Z,9.68
2022-11-14T08:30:17.869Z,9.40
2022-11-14T08:31:29.370Z,9.70
2022-11-14T08:32:40.805Z,8.38
2022-11-14T08:33:54.101Z,10.57
2022-11-14T08:35:06.070Z,8.93
2022-11-14T08:36:17.873Z,9.40
2022-11-14T08:37:29.388Z,8.98
2022-11-14T08:38:40.948Z,8.05
2022-11-14T08:39:52.460Z,9.07
2022-11-14T08:41:04.157Z,9.75
2022-11-14T08:42:16.718Z,8.40
2022-11-14T08:43:28.242Z,9.48
2022-11-14T08:44:39.716Z,9.13
2022-11-14T08:45:51.345Z,9.88
2022-11-14T08:47:03.849Z,8.05
2022-11-14T08:48:15.328Z,8.75
2022-11-14T08:49:26.947Z,8.55
2022-11-14T08:50:40.735Z,9.25
2022-11-14T08:51:52.873Z,8.52
2022-11-14T08:53:04.760Z,8.90
2022-11-14T08:54:16.697Z,8.40
2022-11-14T08:55:29.541Z,10.02
2022-11-14T08:56:41.129Z,8.20
2022-11-14T08:57:55.061Z,9.40
2022-11-14T08:59:06.492Z,8.50
2022-11-14T09:00:18.184Z,8.60
2022-11-14T09:01:29.761Z,11.50
2022-11-14T09:02:41.575Z,10.13
2022-11-14T09:03:58.417Z,9.25
2022-11-14T09:05:11.553Z,7.78
2022-11-14T09:06:23.061Z,8.40
2022-11-14T09:07:34.653Z,7.70
2022-11-14T09:08:46.320Z,8.63
2022-11-14T09:09:58.485Z,8.55
2022-11-14T09:11:10.405Z,8.13
2022-11-14T09:12:22.661Z,7.05
2022-11-14T09:13:35.038Z,6.70
2022-11-14T09:14:46.639Z,8.05
2022-11-14T09:15:58.213Z,8.48
2022-11-14T09:17:09.692Z,7.47
2022-11-14T09:18:21.171Z,7.18
2022-11-14T09:19:32.743Z,8.40
2022-11-14T09:20:44.468Z,9.68
2022-11-14T09:21:55.944Z,9.48
2022-11-14T09:23:07.685Z,9.07
2022-11-14T09:24:19.265Z,8.27
2022-11-14T09:25:31.049Z,8.60
2022-11-14T09:26:45.594Z,8.27
2022-11-14T09:27:57.284Z,8.40
2022-11-14T09:29:08.974Z,7.43
2022-11-14T09:30:20.530Z,7.90
2022-11-14T09:31:32.062Z,9.05
2022-11-14T09:32:43.590Z,8.98
2022-11-14T09:33:55.262Z,7.63
2022-11-14T09:35:06.951Z,7.57
2022-11-14T09:36:19.806Z,8.15
2022-11-14T09:37:31.432Z,8.55
2022-11-14T09:38:44.390Z,7.18
2022-11-14T09:39:55.884Z,7.25
2022-11-14T09:41:10.200Z,7.03
2022-11-14T09:42:39.874Z,6.45
2022-11-14T09:44:09.928Z,6.95
2022-11-14T09:45:21.561Z,8.10
2022-11-14T09:46:46.662Z,11.52
2022-11-14T09:48:12.274Z,6.35
2022-11-14T09:49:27.430Z,9.80
2022-11-14T09:50:45.374Z,19.33
2022-11-14T09:52:00.348Z,8.40
2022-11-14T09:53:20.328Z,8.75
2022-11-14T09:54:38.063Z,8.15
2022-11-14T09:55:49.599Z,7.32
2022-11-14T09:57:01.166Z,7.00
2022-11-14T09:58:19.860Z,7.63
2022-11-14T09:59:31.394Z,6.28
2022-11-14T10:00:57.048Z,6.70
2022-11-14T10:02:19.351Z,7.25
2022-11-14T10:03:46.163Z,6.93
2022-11-14T10:05:17.304Z,7.28
2022-11-14T10:06:51.486Z,7.28
2022-11-14T10:08:03.022Z,9.38
2022-11-14T10:09:35.913Z,7.68
2022-11-14T10:10:52.919Z,6.43
2022-11-14T10:12:04.447Z,7.13
2022-11-14T10:13:39.373Z,7.90
2022-11-14T10:14:51.463Z,7.20
2022-11-14T10:16:14.862Z,6.90
2022-11-14T10:17:37.806Z,5.78
2022-11-14T10:18:49.280Z,6.68
2022-11-14T10:20:21.417Z,6.18
2022-11-14T10:21:56.068Z,6.10
2022-11-14T10:23:26.073Z,5.82
2022-11-14T10:24:57.414Z,7.25
2022-11-14T10:26:11.728Z,7.18
2022-11-14T10:27:26.585Z,6.45
2022-11-14T10:28:41.306Z,7.50
2022-11-14T10:29:53.852Z,7.78
2022-11-14T10:31:13.577Z,7.20
2022-11-14T10:32:40.201Z,7.55
2022-11-14T10:33:56.703Z,6.13
2022-11-14T10:35:18.701Z,6.57
2022-11-14T10:36:47.878Z,7.80
2022-11-14T10:38:18.840Z,7.90
2022-11-14T10:39:45.582Z,8.15
2022-11-14T10:41:07.157Z,6.90
2022-11-14T10:42:24.808Z,7.35
2022-11-14T10:43:39.939Z,7.38
2022-11-14T10:44:57.229Z,8.13
2022-11-14T10:46:29.622Z,6.15
2022-11-14T10:47:43.716Z,6.60
2022-11-14T10:49:00.033Z,8.48
2022-11-14T10:50:15.147Z,5.88
2022-11-14T10:51:26.593Z,7.47
2022-11-14T10:52:40.876Z,6.75
2022-11-14T10:54:10.601Z,7.60
2022-11-14T10:55:49.805Z,7.10
2022-11-14T10:56:55.864Z,7.68
2022-11-14T10:58:11.061Z,7.20
2022-11-14T10:59:22.766Z,6.80
2022-11-14T11:00:36.584Z,7.05
2022-11-14T11:01:51.020Z,7.20
2022-11-14T11:03:02.508Z,6.78
2022-11-14T11:04:19.494Z,6.00
2022-11-14T11:05:31.146Z,6.28
2022-11-14T11:06:42.619Z,6.47
2022-11-14T11:51:33.155Z,5.40
2022-11-14T11:52:51.844Z,5.60
2022-11-14T11:54:21.829Z,5.13
2022-11-14T11:55:34.557Z,4.87
2022-11-14T11:56:48.259Z,6.17
2022-11-14T11:58:02.994Z,4.67
2022-11-14T11:59:36.432Z,5.15
2022-11-14T12:00:50.623Z,4.20
2022-11-14T12:02:06.642Z,5.10
2022-11-14T12:03:20.911Z,5.40
2022-11-14T12:04:32.446Z,6.30
2022-11-14T12:05:59.252Z,11.98
2022-11-14T12:07:14.799Z,20.33
2022-11-14T12:08:45.037Z,12.57
2022-11-14T12:10:10.261Z,12.93
2022-11-14T12:11:24.943Z,7.60
2022-11-14T12:12:39.260Z,7.57
2022-11-14T12:14:00.182Z,6.23
2022-11-14T12:15:23.525Z,5.47
2022-11-14T12:16:43.844Z,6.05
2022-11-14T12:18:09.393Z,5.05
2022-11-14T12:19:35.479Z,5.33
2022-11-14T12:20:53.144Z,5.25
2022-11-14T12:22:07.298Z,6.10
2022-11-14T12:23:29.384Z,5.20
2022-11-14T12:24:41.035Z,5.00
2022-11-14T12:26:07.540Z,4.60
2022-11-14T12:27:24.724Z,4.90
2022-11-14T12:28:36.195Z,5.03
2022-11-14T12:29:47.696Z,4.23
2022-11-14T12:31:00.662Z,5.03
2022-11-14T12:32:14.862Z,5.93
2022-11-14T12:33:29.516Z,5.63
2022-11-14T12:34:46.167Z,4.80
2022-11-14T12:35:59.677Z,5.80
2022-11-14T12:37:28.789Z,4.77
2022-11-14T12:38:48.207Z,5.88
2022-11-14T12:40:07.839Z,4.43
2022-11-14T12:41:32.925Z,5.30
2022-11-14T12:42:47.982Z,5.93
2022-11-14T12:44:32.235Z,5.23
2022-11-14T12:45:43.750Z,6.47
2022-11-14T12:47:07.352Z,5.90
2022-11-14T12:48:22.167Z,5.27
2022-11-14T12:49:38.717Z,5.60
2022-11-14T12:50:50.342Z,4.40
2022-11-14T12:52:01.917Z,4.83
2022-11-14T12:53:37.712Z,5.80
2022-11-14T12:54:49.528Z,5.47
2022-11-14T12:56:21.326Z,8.60
2022-11-14T12:57:48.270Z,6.47
2022-11-14T12:59:04.982Z,5.53
2022-11-14T13:00:17.736Z,5.20
2022-11-14T13:01:47.870Z,5.10
2022-11-14T13:03:19.545Z,5.30
2022-11-14T13:04:37.033Z,5.93
2022-11-14T13:05:57.264Z,5.83
2022-11-14T13:07:28.588Z,5.90
2022-11-14T13:08:44.278Z,5.43
2022-11-14T13:10:14.382Z,4.63
2022-11-14T13:11:51.611Z,5.60
2022-11-14T13:13:25.993Z,4.90
2022-11-14T13:15:12.446Z,5.43
2022-11-14T13:16:44.330Z,7.27
2022-11-14T13:18:31.630Z,11.97
2022-11-14T13:20:05.110Z,6.53
2022-11-14T13:21:35.017Z,5.10
2022-11-14T13:22:46.919Z,5.30
2022-11-14T13:23:58.439Z,5.15
2022-11-14T13:25:17.160Z,5.37
2022-11-14T13:26:31.371Z,5.10
2022-11-14T13:28:06.548Z,5.93
2022-11-14T13:29:46.476Z,4.80
2022-11-14T13:31:18.239Z,5.25
2022-11-14T13:32:41.847Z,5.63
2022-11-14T13:33:58.953Z,5.80
2022-11-14T13:35:18.320Z,5.83
2022-11-14T13:36:44.810Z,5.07
2022-11-14T13:38:15.094Z,4.28
2022-11-14T13:39:26.489Z,5.13
2022-11-14T13:40:56.214Z,4.60
2022-11-14T13:42:10.667Z,4.20
2022-11-14T13:43:40.761Z,5.50
2022-11-14T13:45:10.880Z,5.23
2022-11-14T13:46:35.106Z,4.97
2022-11-14T13:47:56.617Z,4.30
2022-11-14T13:49:28.291Z,5.07
2022-11-14T13:50:43.401Z,4.43
2022-11-14T13:51:55.302Z,5.00
2022-11-14T13:53:15.029Z,5.07
2022-11-14T13:54:28.773Z,5.33
2022-11-14T13:55:48.241Z,5.07
2022-11-14T13:57:09.017Z,5.63
2022-11-14T13:58:20.473Z,5.27
2022-11-14T13:59:31.929Z,6.05
2022-11-14T14:00:52.797Z,5.20
2022-11-14T14:02:04.261Z,5.63
2022-11-14T14:03:18.773Z,6.30
2022-11-14T14:04:48.816Z,6.60
2022-11-14T14:06:20.491Z,5.55
2022-11-14T14:07:34.987Z,6.53
2022-11-14T14:08:58.924Z,7.22
2022-11-14T14:10:16.587Z,8.43
2022-11-14T14:11:28.344Z,9.07
2022-11-14T14:12:39.794Z,9.13
2022-11-14T14:14:06.549Z,8.20
2022-11-14T14:15:34.309Z,6.40
2022-11-14T14:16:52.556Z,5.53
2022-11-14T14:18:13.184Z,5.75
2022-11-14T14:19:26.145Z,6.47
2022-11-14T14:20:41.237Z,6.57
2022-11-14T14:21:55.462Z,6.95
2022-11-14T14:23:20.202Z,8.32
2022-11-14T14:24:44.057Z,7.03
2022-11-14T14:26:15.858Z,8.15
2022-11-14T14:27:30.130Z,9.65
2022-11-14T14:28:44.770Z,10.07
2022-11-14T14:30:13.164Z,9.27
2022-11-14T14:31:24.747Z,9.60
2022-11-14T14:32:36.247Z,7.53
2022-11-14T14:33:48.284Z,6.63
2022-11-14T14:35:00.760Z,8.68
2022-11-14T14:36:18.432Z,8.38
2022-11-14T14:37:30.022Z,6.70
2022-11-14T14:38:41.494Z,6.25
2022-11-14T14:40:00.207Z,5.00
2022-11-14T14:41:14.209Z,6.70
2022-11-14T14:42:30.853Z,8.05
2022-11-14T14:43:55.724Z,8.40
2022-11-14T14:45:18.096Z,6.82
2022-11-14T14:46:30.876Z,6.03
2022-11-14T14:47:43.691Z,6.50
2022-11-14T14:48:55.401Z,6.20
2022-11-14T14:50:14.151Z,5.50
2022-11-14T14:51:36.095Z,5.65
2022-11-14T14:53:16.693Z,6.28
2022-11-14T14:54:29.583Z,6.70
2022-11-14T14:55:41.238Z,5.35
2022-11-14T14:56:54.087Z,5.68
2022-11-14T14:58:19.691Z,6.60
2022-11-14T14:59:36.036Z,7.35
2022-11-14T15:00:51.528Z,6.30
2022-11-14T15:02:04.613Z,5.97
2022-11-14T15:03:16.123Z,6.40
2022-11-14T15:04:28.841Z,6.47
2022-11-14T15:05:40.321Z,7.00
2022-11-14T15:06:52.097Z,6.50
2022-11-14T15:08:03.768Z,11.73
2022-11-14T15:09:18.294Z,13.45
2022-11-14T15:10:30.640Z,12.60
2022-11-14T15:11:43.352Z,13.02
2022-11-14T15:12:55.000Z,11.73
2022-11-14T15:14:06.890Z,10.27
2022-11-14T15:15:19.545Z,10.02
2022-11-14T15:16:31.454Z,19.63
2022-11-14T15:17:43.143Z,26.15
2022-11-14T15:18:56.050Z,33.67
2022-11-14T15:20:20.244Z,35.10
2022-11-14T15:21:32.045Z,33.25
2022-11-14T15:23:01.749Z,36.17
2022-11-14T15:24:20.795Z,32.65
2022-11-14T15:25:32.516Z,31.80
2022-11-14T15:26:45.214Z,36.63
2022-11-14T15:28:00.470Z,32.95
2022-11-14T15:29:18.985Z,33.28
2022-11-14T15:30:31.863Z,33.33
2022-11-14T15:31:47.988Z,33.42
2022-11-14T15:33:01.118Z,32.85
2022-11-14T15:34:32.965Z,30.65
2022-11-14T15:35:44.458Z,26.17
2022-11-14T15:37:06.358Z,27.23
2022-11-14T15:39:49.393Z,23.13
2022-11-14T15:41:09.765Z,20.05
2022-11-14T15:42:24.183Z,20.40
2022-11-14T15:44:01.872Z,22.00
2022-11-14T15:45:23.416Z,18.20
2022-11-14T15:46:35.641Z,18.40
2022-11-14T15:47:47.439Z,18.73
2022-11-14T15:48:59.324Z,18.35
2022-11-14T15:50:13.765Z,12.68
2022-11-14T15:51:57.669Z,11.30
2022-11-14T15:53:20.867Z,11.73
2022-11-14T15:54:33.612Z,15.50
2022-11-14T15:55:45.171Z,17.27
2022-11-14T15:56:58.173Z,21.65
2022-11-14T15:58:27.795Z,22.33
2022-11-14T15:59:40.431Z,16.27
2022-11-14T16:00:53.458Z,17.50
2022-11-14T16:02:25.455Z,12.73
2022-11-14T16:03:36.960Z,10.15
2022-11-14T16:04:50.038Z,11.65
2022-11-14T16:06:01.482Z,10.63
2022-11-14T16:07:13.471Z,11.93
2022-11-14T16:08:24.972Z,10.80
2022-11-14T16:09:36.462Z,11.23
2022-11-14T16:10:47.953Z,9.55
2022-11-14T16:11:59.396Z,10.60
2022-11-14T16:13:11.519Z,8.55
2022-11-14T16:14:23.057Z,7.03
2022-11-14T16:15:34.808Z,8.05
2022-11-14T16:16:46.299Z,7.05
2022-11-14T16:17:57.949Z,6.68
2022-11-14T16:19:10.876Z,6.20
2022-11-14T16:20:23.962Z,6.32
2022-11-14T16:21:37.075Z,7.15
2022-11-14T16:22:49.131Z,6.15
2022-11-14T16:24:01.363Z,7.60
2022-11-14T16:25:24.127Z,12.13
2022-11-14T16:26:36.088Z,9.55
2022-11-14T16:27:47.586Z,14.70
2022-11-14T16:28:59.107Z,14.05
2022-11-14T16:30:14.789Z,13.15
2022-11-14T16:31:26.516Z,15.50
2022-11-14T16:32:38.019Z,12.57
2022-11-14T16:33:49.479Z,11.85
2022-11-14T16:35:00.900Z,12.65
2022-11-14T16:36:12.381Z,13.18
2022-11-14T16:37:25.264Z,11.45
2022-11-14T16:38:36.710Z,12.57
2022-11-14T16:39:48.137Z,14.50
2022-11-14T16:41:00.438Z,15.20
2022-11-14T16:42:12.092Z,12.93
2022-11-14T16:43:23.513Z,19.77
2022-11-14T16:44:41.095Z,15.82
2022-11-14T16:45:54.319Z,12.82
2022-11-14T16:47:05.750Z,14.75
2022-11-14T16:48:20.062Z,13.07
2022-11-14T16:49:31.474Z,11.43
2022-11-14T16:50:45.905Z,10.60
2022-11-14T16:51:58.522Z,9.68
2022-11-14T16:53:09.983Z,9.52
2022-11-14T16:54:21.510Z,9.65
2022-11-14T16:55:32.987Z,11.35
2022-11-14T16:56:44.839Z,13.95
2022-11-14T16:57:56.446Z,14.38
2022-11-14T16:59:11.481Z,12.82
2022-11-14T17:00:22.985Z,16.42
2022-11-14T17:01:34.626Z,9.98
2022-11-14T17:02:47.577Z,9.32
2022-11-14T17:04:00.194Z,8.57
2022-11-14T17:05:11.712Z,8.80
2022-11-14T17:06:23.132Z,7.50
2022-11-14T17:07:34.737Z,8.68
2022-11-14T17:08:46.313Z,8.98
2022-11-14T17:09:58.074Z,7.47
2022-11-14T17:11:10.602Z,7.60